Time;durP1;ratioP1;P1;durP2;ratioP2;P2;SDS_P1;SDS_P2;PMS_P1;PMS_P2;Temp;Humidity;BMP_temperature;BMP_pressure;BME280_temperature;BME280_humidity;BME280_pressure;Samples;Min_cycle;Max_cycle;Signal;HPM_P1;HPM_P2
2024/02/13 00:00:40;;;;;;;3.78;2.53;;;;;;;;;;4998340;28;20024;-63
2024/02/13 00:03:09;;;;;;;2.35;2.15;;;;;;;;;;5019868;28;20453;-63
2024/02/13 00:05:35;;;;;;;2.63;2.30;;;;;;;;;;5017755;28;20018;-64
2024/02/13 00:08:01;;;;;;;2.53;2.33;;;;;;;;;;5015690;28;20049;-63
2024/02/13 00:10:29;;;;;;;6.07;2.33;;;;;;;;;;5004296;28;20488;-63
2024/02/13 00:12:55;;;;;;;2.10;1.90;;;;;;;;;;5019150;28;20025;-63
2024/02/13 00:15:21;;;;;;;5.40;2.22;;;;;;;;;;5002488;28;21067;-63
2024/02/13 00:17:48;;;;;;;4.05;2.45;;;;;;;;;;5022484;28;20022;-64
2024/02/13 00:20:14;;;;;;;5.95;2.63;;;;;;;;;;5002952;28;20029;-63
2024/02/13 00:22:41;;;;;;;2.58;2.10;;;;;;;;;;5019682;28;20113;-63
2024/02/13 00:25:08;;;;;;;18.17;2.78;;;;;;;;;;5003024;28;20026;-63
2024/02/13 00:27:35;;;;;;;4.82;2.63;;;;;;;;;;5003381;28;20021;-64
2024/02/13 00:30:03;;;;;;;6.57;3.45;;;;;;;;;;5025026;28;20049;-63
2024/02/13 00:32:30;;;;;;;20.95;13.15;;;;;;;;;;5020471;28;20600;-63
2024/02/13 00:34:56;;;;;;;6.35;3.78;;;;;;;;;;5038193;28;20073;-66
2024/02/13 00:37:23;;;;;;;2.75;2.13;;;;;;;;;;5037694;28;20025;-67
2024/02/13 00:39:50;;;;;;;2.53;2.15;;;;;;;;;;5038028;28;20047;-66
2024/02/13 00:42:16;;;;;;;2.92;2.65;;;;;;;;;;5042178;28;20104;-66
2024/02/13 00:44:45;;;;;;;8.77;2.88;;;;;;;;;;5018574;28;20370;-66
2024/02/13 00:47:12;;;;;;;8.20;2.20;;;;;;;;;;5041194;28;20029;-66
2024/02/13 00:49:38;;;;;;;5.68;2.28;;;;;;;;;;5036904;28;20030;-66
2024/02/13 00:52:06;;;;;;;1.75;1.65;;;;;;;;;;5040495;28;20025;-66
2024/02/13 00:54:32;;;;;;;2.00;1.80;;;;;;;;;;5018412;28;20036;-67
2024/02/13 00:56:58;;;;;;;2.08;1.60;;;;;;;;;;5033457;28;20523;-67
2024/02/13 00:59:25;;;;;;;2.03;1.77;;;;;;;;;;5034289;28;20469;-66
2024/02/13 01:01:52;;;;;;;2.42;2.10;;;;;;;;;;5037289;28;20044;-66
2024/02/13 01:04:19;;;;;;;4.15;2.03;;;;;;;;;;5018480;28;20044;-66
2024/02/13 01:06:45;;;;;;;11.82;2.40;;;;;;;;;;5037522;28;20027;-66
2024/02/13 01:09:12;;;;;;;4.90;2.10;;;;;;;;;;5017491;28;20100;-67
2024/02/13 01:11:54;;;;;;;2.10;1.90;;;;;;;;;;5038452;28;20485;-66
2024/02/13 01:14:29;;;;;;;1.83;1.70;;;;;;;;;;5037365;28;20178;-66
2024/02/13 01:16:58;;;;;;;1.73;1.63;;;;;;;;;;5038181;28;20017;-65
2024/02/13 01:19:25;;;;;;;7.97;2.65;;;;;;;;;;5023360;28;20032;-66
2024/02/13 01:21:55;;;;;;;1.65;1.55;;;;;;;;;;5025080;28;20061;-66
2024/02/13 01:24:24;;;;;;;1.88;1.60;;;;;;;;;;5022621;28;20388;-66
2024/02/13 01:26:50;;;;;;;5.03;2.65;;;;;;;;;;5041285;28;20059;-67
2024/02/13 01:29:16;;;;;;;2.00;1.80;;;;;;;;;;5042507;28;20037;-67
2024/02/13 01:31:42;;;;;;;1.88;1.70;;;;;;;;;;5041802;28;20116;-66
2024/02/13 01:34:09;;;;;;;1.60;1.50;;;;;;;;;;5016871;28;20037;-66
2024/02/13 01:36:37;;;;;;;1.75;1.65;;;;;;;;;;5034251;28;20246;-66
2024/02/13 01:39:04;;;;;;;3.47;1.85;;;;;;;;;;5023366;28;20028;-66
2024/02/13 01:41:30;;;;;;;3.13;1.50;;;;;;;;;;5046025;28;20507;-66
2024/02/13 01:43:57;;;;;;;1.83;1.42;;;;;;;;;;5035236;28;20029;-66
2024/02/13 01:46:26;;;;;;;4.93;1.83;;;;;;;;;;5031366;28;20044;-67
2024/02/13 01:48:58;;;;;;;2.95;1.40;;;;;;;;;;5046688;28;20420;-66
2024/02/13 01:51:27;;;;;;;2.10;1.75;;;;;;;;;;5020472;28;20029;-67
2024/02/13 01:53:57;;;;;;;1.42;1.35;;;;;;;;;;5039811;28;20017;-66
2024/02/13 01:56:26;;;;;;;2.38;1.55;;;;;;;;;;5031605;28;20029;-66
2024/02/13 01:58:53;;;;;;;1.75;1.65;;;;;;;;;;5036908;28;20437;-66
2024/02/13 02:01:19;;;;;;;5.80;1.95;;;;;;;;;;5013252;28;20044;-67
2024/02/13 02:03:45;;;;;;;5.45;1.80;;;;;;;;;;5038967;28;20431;-66
2024/02/13 02:06:11;;;;;;;1.90;1.73;;;;;;;;;;5034728;28;20084;-67
2024/02/13 02:08:39;;;;;;;2.15;1.67;;;;;;;;;;5018325;28;20021;-67
2024/02/13 02:11:05;;;;;;;1.98;1.77;;;;;;;;;;5037052;28;20026;-66
2024/02/13 02:13:31;;;;;;;2.08;1.88;;;;;;;;;;5038658;28;20175;-66
2024/02/13 02:15:58;;;;;;;1.58;1.48;;;;;;;;;;5039107;28;20579;-65
2024/02/13 02:18:24;;;;;;;1.65;1.55;;;;;;;;;;5032859;28;20042;-66
2024/02/13 02:20:50;;;;;;;2.70;2.50;;;;;;;;;;5033027;28;20025;-66
2024/02/13 02:23:19;;;;;;;1.88;1.77;;;;;;;;;;5034231;28;20473;-66
2024/02/13 02:25:50;;;;;;;1.30;1.30;;;;;;;;;;5035355;28;20389;-66
2024/02/13 02:28:17;;;;;;;1.52;1.42;;;;;;;;;;5036023;28;20017;-68
2024/02/13 02:30:44;;;;;;;8.45;1.60;;;;;;;;;;5039839;28;20081;-66
2024/02/13 02:33:11;;;;;;;1.73;1.27;;;;;;;;;;5037678;28;20028;-66
2024/02/13 02:35:37;;;;;;;1.92;1.40;;;;;;;;;;5040609;28;20033;-66
2024/02/13 02:38:03;;;;;;;2.28;1.45;;;;;;;;;;5040096;28;20029;-66
2024/02/13 02:40:29;;;;;;;5.05;1.70;;;;;;;;;;5034565;28;20171;-66
2024/02/13 02:42:55;;;;;;;6.95;2.28;;;;;;;;;;5038595;28;20143;-67
2024/02/13 02:45:22;;;;;;;1.70;1.60;;;;;;;;;;5019144;28;20059;-66
2024/02/13 02:47:50;;;;;;;1.75;1.60;;;;;;;;;;5039034;28;20104;-66
2024/02/13 02:50:17;;;;;;;1.92;1.38;;;;;;;;;;5023329;28;20033;-66
2024/02/13 02:52:44;;;;;;;1.42;1.40;;;;;;;;;;5038092;28;21131;-66
2024/02/13 02:55:10;;;;;;;3.50;1.67;;;;;;;;;;5024010;28;20029;-65
2024/02/13 02:57:37;;;;;;;1.63;1.52;;;;;;;;;;5041566;28;20172;-66
2024/02/13 03:00:06;;;;;;;2.88;1.73;;;;;;;;;;5036533;28;20022;-66
2024/02/13 03:02:32;;;;;;;2.22;2.03;;;;;;;;;;5046741;28;20025;-67
2024/02/13 03:04:59;;;;;;;4.20;1.70;;;;;;;;;;5044611;28;20389;-66
2024/02/13 03:07:25;;;;;;;1.55;1.45;;;;;;;;;;5026533;28;20476;-66
2024/02/13 03:09:51;;;;;;;2.58;1.63;;;;;;;;;;5039221;28;20463;-67
2024/02/13 03:12:17;;;;;;;1.83;1.73;;;;;;;;;;5022874;28;20033;-66
2024/02/13 03:14:44;;;;;;;1.88;1.70;;;;;;;;;;5041260;28;20406;-66
2024/02/13 03:17:11;;;;;;;2.90;2.70;;;;;;;;;;5037750;28;20562;-66
2024/02/13 03:19:38;;;;;;;4.93;1.63;;;;;;;;;;5047345;28;20036;-66
2024/02/13 03:22:06;;;;;;;3.00;1.75;;;;;;;;;;5043312;28;20028;-67
2024/02/13 03:24:33;;;;;;;2.75;1.83;;;;;;;;;;5027215;28;20259;-63
2024/02/13 03:27:00;;;;;;;3.83;1.45;;;;;;;;;;5034950;28;20544;-62
2024/02/13 03:29:27;;;;;;;5.32;1.70;;;;;;;;;;5040015;28;20594;-62
2024/02/13 03:31:54;;;;;;;3.90;1.35;;;;;;;;;;5044969;28;20665;-63
2024/02/13 03:34:20;;;;;;;3.00;1.45;;;;;;;;;;5016088;28;20025;-63
2024/02/13 03:36:47;;;;;;;1.38;1.27;;;;;;;;;;5025663;28;20033;-62
2024/02/13 03:39:13;;;;;;;6.35;1.50;;;;;;;;;;5041912;28;20237;-62
2024/02/13 03:41:45;;;;;;;1.65;1.33;;;;;;;;;;5016350;28;20033;-62
2024/02/13 03:44:11;;;;;;;1.63;1.52;;;;;;;;;;5027033;28;20064;-63
2024/02/13 03:46:38;;;;;;;3.65;1.65;;;;;;;;;;5038077;28;20115;-64
2024/02/13 03:49:04;;;;;;;2.13;1.45;;;;;;;;;;5040738;28;20025;-62
2024/02/13 03:51:33;;;;;;;1.20;1.20;;;;;;;;;;5040159;28;20040;-63
2024/02/13 03:54:00;;;;;;;1.63;1.52;;;;;;;;;;5037884;28;20548;-62
2024/02/13 03:56:26;;;;;;;1.45;1.35;;;;;;;;;;5043602;28;20087;-66
2024/02/13 03:58:52;;;;;;;2.90;1.58;;;;;;;;;;5043131;28;20035;-63
2024/02/13 04:01:18;;;;;;;2.15;1.98;;;;;;;;;;5042105;28;20494;-63
2024/02/13 04:03:45;;;;;;;1.70;1.60;;;;;;;;;;5028603;28;20608;-63
2024/02/13 04:06:11;;;;;;;3.50;2.30;;;;;;;;;;5045812;28;20036;-62
2024/02/13 04:08:39;;;;;;;1.75;1.58;;;;;;;;;;5039754;28;20603;-62
2024/02/13 04:11:05;;;;;;;2.30;1.73;;;;;;;;;;5017378;28;20043;-63
2024/02/13 04:13:32;;;;;;;6.88;1.67;;;;;;;;;;5016510;28;20044;-65
2024/02/13 04:16:00;;;;;;;4.95;2.00;;;;;;;;;;5038245;28;20896;-62
2024/02/13 04:18:26;;;;;;;4.93;1.85;;;;;;;;;;5042214;28;20029;-63
2024/02/13 04:20:53;;;;;;;1.70;1.60;;;;;;;;;;5029809;28;20034;-63
2024/02/13 04:23:20;;;;;;;5.22;2.42;;;;;;;;;;5019171;28;20722;-63
2024/02/13 04:25:46;;;;;;;5.68;1.77;;;;;;;;;;5045547;28;20060;-63
2024/02/13 04:28:12;;;;;;;4.95;2.05;;;;;;;;;;5038742;28;20025;-63
2024/02/13 04:30:40;;;;;;;2.65;1.50;;;;;;;;;;5037956;28;20535;-63
2024/02/13 04:33:09;;;;;;;3.60;1.80;;;;;;;;;;5042223;28;20075;-63
2024/02/13 04:35:39;;;;;;;2.45;1.98;;;;;;;;;;5036624;28;20032;-63
2024/02/13 04:38:05;;;;;;;2.15;1.83;;;;;;;;;;5042195;28;20535;-63
2024/02/13 04:40:35;;;;;;;5.60;1.77;;;;;;;;;;5021671;28;20102;-63
2024/02/13 04:43:02;;;;;;;1.27;1.27;;;;;;;;;;5041964;28;20032;-64
2024/02/13 04:45:28;;;;;;;1.45;1.35;;;;;;;;;;5036737;28;20025;-63
2024/02/13 04:47:55;;;;;;;1.98;1.65;;;;;;;;;;5024017;28;20056;-63
2024/02/13 04:50:21;;;;;;;3.42;2.10;;;;;;;;;;5035571;28;20033;-63
2024/02/13 04:52:47;;;;;;;1.75;1.65;;;;;;;;;;5028348;28;20515;-63
2024/02/13 04:55:13;;;;;;;1.88;1.77;;;;;;;;;;5016854;28;20106;-63
2024/02/13 04:57:39;;;;;;;2.45;1.98;;;;;;;;;;5029856;28;20040;-63
2024/02/13 05:00:16;;;;;;;4.13;1.63;;;;;;;;;;5045684;28;20028;-63
2024/02/13 05:02:48;;;;;;;1.40;1.40;;;;;;;;;;5037207;28;20029;-63
2024/02/13 05:07:59;;;;;;;2.28;1.73;;;;;;;;;;5037587;28;20527;-63
2024/02/13 05:10:25;;;;;;;1.63;1.52;;;;;;;;;;5020828;28;20055;-63
2024/02/13 05:12:53;;;;;;;2.83;1.50;;;;;;;;;;5033249;28;20043;-63
2024/02/13 05:15:21;;;;;;;4.45;1.40;;;;;;;;;;5034075;28;20997;-63
2024/02/13 05:17:48;;;;;;;4.40;1.50;;;;;;;;;;5037951;28;20022;-63
2024/02/13 05:20:14;;;;;;;3.40;1.35;;;;;;;;;;5035993;28;20596;-64
2024/02/13 05:22:42;;;;;;;1.60;1.50;;;;;;;;;;5030364;28;20030;-63
2024/02/13 05:25:09;;;;;;;3.40;1.30;;;;;;;;;;5032174;28;20036;-63
2024/02/13 05:27:35;;;;;;;2.22;1.77;;;;;;;;;;5029278;28;20480;-63
2024/02/13 05:30:01;;;;;;;1.35;1.33;;;;;;;;;;5038008;28;20128;-63
2024/02/13 05:32:28;;;;;;;3.15;1.70;;;;;;;;;;5016791;28;20045;-63
2024/02/13 05:34:56;;;;;;;4.45;1.38;;;;;;;;;;5038540;28;20121;-63
2024/02/13 05:37:22;;;;;;;1.20;1.20;;;;;;;;;;5040331;28;20024;-63
2024/02/13 05:39:51;;;;;;;6.65;1.50;;;;;;;;;;5022336;28;20115;-63
2024/02/13 05:42:22;;;;;;;1.88;1.77;;;;;;;;;;5035108;28;20021;-63
2024/02/13 05:44:49;;;;;;;2.92;1.77;;;;;;;;;;5041361;28;20021;-63
2024/02/13 05:47:15;;;;;;;4.88;1.70;;;;;;;;;;5021159;28;20025;-63
2024/02/13 05:49:45;;;;;;;1.50;1.40;;;;;;;;;;5022585;28;20247;-64
2024/02/13 05:52:12;;;;;;;1.42;1.33;;;;;;;;;;5020766;28;20029;-64
2024/02/13 05:54:38;;;;;;;2.45;2.05;;;;;;;;;;5017540;28;20024;-63
2024/02/13 05:57:05;;;;;;;2.47;1.27;;;;;;;;;;5036466;28;20029;-63
2024/02/13 05:59:31;;;;;;;4.20;2.38;;;;;;;;;;5042135;28;20033;-67
2024/02/13 06:02:01;;;;;;;1.55;1.52;;;;;;;;;;5035025;28;20392;-66
2024/02/13 06:04:29;;;;;;;2.15;1.98;;;;;;;;;;5037168;28;20031;-67
2024/02/13 06:06:55;;;;;;;3.72;1.80;;;;;;;;;;5036585;28;20404;-66
2024/02/13 06:09:24;;;;;;;4.40;2.03;;;;;;;;;;5041929;28;20039;-67
2024/02/13 06:11:54;;;;;;;1.77;1.45;;;;;;;;;;5032525;28;20025;-66
2024/02/13 06:14:20;;;;;;;1.67;1.58;;;;;;;;;;5042069;28;20047;-66
2024/02/13 06:16:47;;;;;;;3.25;1.65;;;;;;;;;;5035954;28;20029;-66
2024/02/13 06:19:13;;;;;;;3.85;1.83;;;;;;;;;;5037305;28;20444;-66
2024/02/13 06:21:39;;;;;;;1.98;1.88;;;;;;;;;;5019834;28;20106;-66
2024/02/13 06:24:06;;;;;;;5.35;1.60;;;;;;;;;;5032718;28;20021;-66
2024/02/13 06:26:32;;;;;;;3.70;1.95;;;;;;;;;;5040660;28;20029;-67
2024/02/13 06:28:58;;;;;;;1.73;1.60;;;;;;;;;;5019331;28;20044;-66
2024/02/13 06:31:24;;;;;;;6.15;1.70;;;;;;;;;;5025569;28;20326;-66
2024/02/13 06:33:50;;;;;;;2.28;2.00;;;;;;;;;;5040745;28;20025;-66
2024/02/13 06:36:17;;;;;;;1.80;1.70;;;;;;;;;;5033179;28;20025;-66
2024/02/13 06:38:43;;;;;;;2.05;1.95;;;;;;;;;;5038197;28;20051;-66
2024/02/13 06:41:10;;;;;;;2.45;1.95;;;;;;;;;;5034869;28;20026;-66
2024/02/13 06:43:36;;;;;;;2.78;1.95;;;;;;;;;;5023172;28;20021;-64
2024/02/13 06:46:03;;;;;;;6.82;1.88;;;;;;;;;;5037634;28;20496;-64
2024/02/13 06:48:29;;;;;;;2.00;1.70;;;;;;;;;;5016589;28;20037;-64
2024/02/13 06:50:55;;;;;;;2.22;1.88;;;;;;;;;;5041147;28;20029;-64
2024/02/13 06:53:22;;;;;;;8.50;3.22;;;;;;;;;;5036996;28;20029;-64
2024/02/13 06:55:48;;;;;;;3.38;2.08;;;;;;;;;;5046735;28;20044;-64
2024/02/13 06:58:16;;;;;;;4.93;1.48;;;;;;;;;;5043268;28;20047;-64
2024/02/13 07:00:43;;;;;;;2.97;1.63;;;;;;;;;;5039108;28;20037;-64
2024/02/13 07:03:09;;;;;;;1.95;1.50;;;;;;;;;;5045606;28;20463;-64
2024/02/13 07:05:37;;;;;;;3.15;1.90;;;;;;;;;;5038465;28;20033;-64
2024/02/13 07:08:03;;;;;;;2.00;1.88;;;;;;;;;;5044326;28;20029;-63
2024/02/13 07:10:30;;;;;;;2.17;1.85;;;;;;;;;;5037096;28;20041;-63
2024/02/13 07:12:58;;;;;;;1.58;1.52;;;;;;;;;;5030288;28;20029;-64
2024/02/13 07:15:24;;;;;;;1.50;1.40;;;;;;;;;;5042201;28;20029;-64
2024/02/13 07:17:51;;;;;;;1.30;1.20;;;;;;;;;;5028212;28;20034;-64
2024/02/13 07:20:17;;;;;;;2.97;1.83;;;;;;;;;;5035222;28;20373;-64
2024/02/13 07:22:43;;;;;;;2.35;1.67;;;;;;;;;;5012418;28;20025;-64
2024/02/13 07:25:09;;;;;;;2.47;2.03;;;;;;;;;;5029229;28;20017;-64
2024/02/13 07:27:40;;;;;;;2.78;1.50;;;;;;;;;;5030262;28;20033;-64
2024/02/13 07:30:07;;;;;;;5.13;1.90;;;;;;;;;;5034739;28;20049;-64
2024/02/13 07:32:34;;;;;;;6.05;3.17;;;;;;;;;;5045492;28;20108;-64
2024/02/13 07:35:04;;;;;;;2.70;2.45;;;;;;;;;;5033482;28;20029;-64
2024/02/13 07:37:31;;;;;;;2.35;2.15;;;;;;;;;;5047708;28;20025;-64
2024/02/13 07:39:58;;;;;;;3.70;1.92;;;;;;;;;;5037301;28;20033;-63
2024/02/13 07:42:25;;;;;;;2.67;2.47;;;;;;;;;;5024643;28;20488;-63
2024/02/13 07:44:51;;;;;;;2.70;1.80;;;;;;;;;;5030242;28;20068;-64
2024/02/13 07:47:21;;;;;;;1.77;1.67;;;;;;;;;;5033729;28;20496;-63
2024/02/13 07:49:48;;;;;;;1.63;1.52;;;;;;;;;;5039094;28;20025;-64
2024/02/13 07:52:17;;;;;;;2.30;1.67;;;;;;;;;;5030086;28;20487;-64
2024/02/13 07:54:44;;;;;;;1.92;1.70;;;;;;;;;;5046737;28;20032;-64
2024/02/13 07:57:11;;;;;;;1.75;1.65;;;;;;;;;;5037629;28;20036;-64
2024/02/13 07:59:37;;;;;;;1.83;1.73;;;;;;;;;;5038694;28;20024;-64
2024/02/13 08:02:03;;;;;;;1.70;1.60;;;;;;;;;;5009256;28;20037;-64
2024/02/13 08:04:31;;;;;;;3.13;1.95;;;;;;;;;;5034642;28;20047;-64
2024/02/13 08:07:00;;;;;;;5.22;2.08;;;;;;;;;;5039362;28;20017;-65
2024/02/13 08:09:26;;;;;;;2.05;1.85;;;;;;;;;;5043145;28;20036;-64
2024/02/13 08:11:53;;;;;;;22.20;2.03;;;;;;;;;;5037169;28;20044;-64
2024/02/13 08:14:20;;;;;;;1.35;1.30;;;;;;;;;;5038367;28;20669;-64
2024/02/13 08:16:46;;;;;;;5.28;2.17;;;;;;;;;;5041167;28;20083;-64
2024/02/13 08:19:12;;;;;;;1.88;1.55;;;;;;;;;;5043217;28;20037;-64
2024/02/13 08:21:38;;;;;;;2.83;1.95;;;;;;;;;;5042387;28;20369;-64
2024/02/13 08:24:07;;;;;;;1.60;1.50;;;;;;;;;;5039093;28;20096;-64
2024/02/13 08:26:33;;;;;;;3.38;1.75;;;;;;;;;;5026089;28;20021;-64
2024/02/13 08:28:59;;;;;;;1.30;1.20;;;;;;;;;;5020910;28;20119;-64
2024/02/13 08:31:26;;;;;;;2.15;1.60;;;;;;;;;;5030609;28;20036;-64
2024/02/13 08:33:52;;;;;;;2.35;1.52;;;;;;;;;;5022341;28;20129;-64
2024/02/13 08:36:18;;;;;;;1.52;1.42;;;;;;;;;;5038572;28;20091;-64
2024/02/13 08:38:45;;;;;;;3.20;2.13;;;;;;;;;;5041445;28;20031;-64
2024/02/13 08:41:13;;;;;;;2.13;1.75;;;;;;;;;;5031080;28;20072;-64
2024/02/13 08:43:39;;;;;;;8.10;1.63;;;;;;;;;;5033501;28;20031;-64
2024/02/13 08:46:05;;;;;;;1.58;1.48;;;;;;;;;;4998416;28;20124;-64
2024/02/13 08:48:32;;;;;;;2.67;1.98;;;;;;;;;;5033258;28;20028;-64
2024/02/13 08:50:58;;;;;;;1.48;1.38;;;;;;;;;;5033337;28;20021;-68
2024/02/13 08:53:24;;;;;;;1.80;1.70;;;;;;;;;;5024888;28;20111;-64
2024/02/13 08:55:51;;;;;;;1.30;1.30;;;;;;;;;;5013888;28;20333;-65
2024/02/13 08:58:18;;;;;;;1.70;1.60;;;;;;;;;;5035032;28;20376;-64
2024/02/13 09:00:44;;;;;;;1.52;1.42;;;;;;;;;;5040854;28;20021;-65
2024/02/13 09:03:11;;;;;;;4.60;1.83;;;;;;;;;;5032862;28;20432;-64
2024/02/13 09:05:37;;;;;;;1.20;1.20;;;;;;;;;;5020328;28;20029;-64
2024/02/13 09:08:05;;;;;;;1.63;1.52;;;;;;;;;;5037992;28;20026;-64
2024/02/13 09:10:32;;;;;;;1.73;1.58;;;;;;;;;;5022880;28;20444;-64
2024/02/13 09:12:58;;;;;;;1.75;1.25;;;;;;;;;;5009378;28;20579;-63
2024/02/13 09:15:25;;;;;;;2.30;1.27;;;;;;;;;;5014262;28;20437;-64
2024/02/13 09:17:53;;;;;;;3.67;1.67;;;;;;;;;;5037427;28;20032;-64
2024/02/13 09:20:21;;;;;;;1.50;1.40;;;;;;;;;;5021226;28;20033;-65
2024/02/13 09:22:49;;;;;;;1.65;1.55;;;;;;;;;;5037308;28;20025;-64
2024/02/13 09:25:21;;;;;;;1.60;1.50;;;;;;;;;;5018558;28;20674;-64
2024/02/13 09:27:48;;;;;;;3.90;1.60;;;;;;;;;;5043454;28;20419;-64
2024/02/13 09:30:15;;;;;;;4.40;1.60;;;;;;;;;;5032000;28;20067;-64
2024/02/13 09:32:41;;;;;;;1.58;1.48;;;;;;;;;;5041892;28;20035;-64
2024/02/13 09:35:08;;;;;;;2.28;1.63;;;;;;;;;;5028388;28;20680;-65
2024/02/13 09:37:40;;;;;;;1.55;1.45;;;;;;;;;;5034746;28;20039;-64
2024/02/13 09:40:18;;;;;;;1.80;1.70;;;;;;;;;;5023594;28;20028;-64
2024/02/13 09:42:45;;;;;;;2.67;1.55;;;;;;;;;;5021606;28;20400;-65
2024/02/13 09:45:13;;;;;;;1.25;1.25;;;;;;;;;;5020009;28;20029;-64
2024/02/13 09:47:39;;;;;;;4.38;1.52;;;;;;;;;;5017988;28;20013;-64
2024/02/13 09:50:07;;;;;;;3.22;1.20;;;;;;;;;;5030670;28;20037;-64
2024/02/13 09:52:33;;;;;;;1.70;1.60;;;;;;;;;;5033441;28;20021;-64
2024/02/13 09:55:01;;;;;;;1.80;1.70;;;;;;;;;;5030510;28;20548;-65
2024/02/13 09:57:27;;;;;;;1.20;1.20;;;;;;;;;;5023632;28;20025;-64
2024/02/13 09:59:56;;;;;;;1.02;1.02;;;;;;;;;;5037001;28;20136;-65
2024/02/13 10:02:27;;;;;;;1.17;1.17;;;;;;;;;;5030159;28;20454;-64
2024/02/13 10:04:54;;;;;;;2.72;1.33;;;;;;;;;;5030060;28;20484;-64
2024/02/13 10:07:22;;;;;;;5.82;1.63;;;;;;;;;;5026695;28;20025;-66
2024/02/13 10:09:49;;;;;;;2.15;1.48;;;;;;;;;;5033917;28;20025;-64
2024/02/13 10:12:15;;;;;;;1.70;1.60;;;;;;;;;;5052004;28;20031;-65
2024/02/13 10:14:41;;;;;;;1.10;1.10;;;;;;;;;;5036443;28;20072;-64
2024/02/13 10:17:10;;;;;;;1.40;1.30;;;;;;;;;;5035340;28;20037;-65
2024/02/13 10:19:37;;;;;;;2.08;1.88;;;;;;;;;;5017544;28;20032;-64
2024/02/13 10:22:05;;;;;;;1.63;1.52;;;;;;;;;;5026723;28;20033;-65
2024/02/13 10:24:31;;;;;;;3.55;1.50;;;;;;;;;;5024292;28;20036;-65
2024/02/13 10:26:59;;;;;;;3.45;2.03;;;;;;;;;;5029184;28;20400;-64
2024/02/13 10:29:25;;;;;;;1.75;1.65;;;;;;;;;;5027965;28;20520;-65
2024/02/13 10:31:54;;;;;;;1.58;1.48;;;;;;;;;;5014230;28;20405;-65
2024/02/13 10:34:21;;;;;;;1.60;1.50;;;;;;;;;;5032316;28;20031;-64
2024/02/13 10:36:48;;;;;;;1.75;1.63;;;;;;;;;;5021478;28;20028;-65
2024/02/13 10:39:16;;;;;;;4.43;1.65;;;;;;;;;;5034980;28;20025;-65
2024/02/13 10:41:45;;;;;;;1.30;1.30;;;;;;;;;;5026414;28;20025;-64
2024/02/13 10:44:15;;;;;;;1.70;1.60;;;;;;;;;;5030611;28;20502;-65
2024/02/13 10:46:43;;;;;;;2.10;1.98;;;;;;;;;;5024847;28;20033;-65
2024/02/13 10:49:15;;;;;;;1.20;1.20;;;;;;;;;;5034210;28;20029;-64
2024/02/13 10:51:42;;;;;;;1.50;1.42;;;;;;;;;;5032140;28;20091;-64
2024/02/13 10:54:12;;;;;;;1.65;1.55;;;;;;;;;;5015993;28;20048;-65
2024/02/13 10:56:39;;;;;;;1.38;1.27;;;;;;;;;;5035896;28;20026;-65
2024/02/13 10:59:06;;;;;;;3.97;2.10;;;;;;;;;;5035800;28;20438;-65
2024/02/13 11:01:34;;;;;;;2.35;1.30;;;;;;;;;;5032115;28;20084;-65
2024/02/13 11:04:02;;;;;;;1.30;1.20;;;;;;;;;;5033077;28;20021;-65
2024/02/13 11:06:28;;;;;;;1.42;1.38;;;;;;;;;;5037735;28;20384;-65
2024/02/13 11:08:57;;;;;;;1.30;1.30;;;;;;;;;;5042452;28;20082;-65
2024/02/13 11:11:26;;;;;;;1.50;1.40;;;;;;;;;;5039716;28;20049;-65
2024/02/13 11:13:55;;;;;;;1.67;1.40;;;;;;;;;;5040646;28;20563;-65
2024/02/13 11:16:22;;;;;;;1.20;1.20;;;;;;;;;;5039294;28;20025;-65
2024/02/13 11:18:49;;;;;;;1.40;1.30;;;;;;;;;;5021670;28;20132;-65
2024/02/13 11:21:19;;;;;;;1.95;1.50;;;;;;;;;;5031135;28;20029;-65
2024/02/13 11:24:01;;;;;;;3.63;1.83;;;;;;;;;;5034080;28;20075;-65
2024/02/13 11:26:37;;;;;;;2.78;1.65;;;;;;;;;;5027492;28;20028;-65
2024/02/13 11:29:10;;;;;;;1.60;1.50;;;;;;;;;;5038117;28;20519;-65
2024/02/13 11:31:37;;;;;;;2.88;2.30;;;;;;;;;;5032810;28;20515;-65
2024/02/13 11:34:13;;;;;;;1.58;1.48;;;;;;;;;;5020376;28;20036;-65
2024/02/13 11:36:39;;;;;;;2.72;2.50;;;;;;;;;;5016550;28;20028;-65
2024/02/13 11:39:09;;;;;;;1.67;1.45;;;;;;;;;;5043843;28;20032;-65
2024/02/13 11:41:36;;;;;;;18.27;7.72;;;;;;;;;;5035904;28;20353;-65
2024/02/13 11:44:08;;;;;;;4.65;3.47;;;;;;;;;;5027870;28;20041;-65
2024/02/13 11:46:54;;;;;;;2.63;2.42;;;;;;;;;;5029209;28;20033;-65
2024/02/13 11:49:21;;;;;;;4.53;3.40;;;;;;;;;;5029444;28;20374;-65
2024/02/13 11:51:48;;;;;;;1.58;1.20;;;;;;;;;;5040200;28;20091;-65
2024/02/13 11:54:14;;;;;;;1.70;1.60;;;;;;;;;;5040771;28;20029;-65
2024/02/13 11:56:41;;;;;;;1.73;1.60;;;;;;;;;;5027655;28;20036;-65
2024/02/13 11:59:07;;;;;;;2.92;1.52;;;;;;;;;;5039215;28;20056;-65
2024/02/13 12:01:37;;;;;;;1.00;1.00;;;;;;;;;;5025573;28;20029;-66
2024/02/13 12:04:11;;;;;;;1.00;1.00;;;;;;;;;;5045432;28;20028;-65
2024/02/13 12:06:37;;;;;;;2.17;1.50;;;;;;;;;;5023374;28;20032;-65
2024/02/13 12:09:03;;;;;;;1.40;1.27;;;;;;;;;;5040609;28;20039;-66
2024/02/13 12:11:30;;;;;;;1.60;1.50;;;;;;;;;;5034629;28;20530;-66
2024/02/13 12:13:57;;;;;;;2.55;1.88;;;;;;;;;;5034119;28;20029;-65
2024/02/13 12:16:23;;;;;;;5.82;1.80;;;;;;;;;;5039157;28;20388;-65
2024/02/13 12:18:49;;;;;;;5.30;1.90;;;;;;;;;;5041832;28;20389;-65
2024/02/13 12:21:16;;;;;;;1.88;1.75;;;;;;;;;;5042208;28;20550;-65
2024/02/13 12:23:46;;;;;;;2.00;1.88;;;;;;;;;;5038837;28;20025;-66
2024/02/13 12:26:12;;;;;;;6.32;2.00;;;;;;;;;;5036995;28;20056;-66
2024/02/13 12:28:42;;;;;;;2.45;1.67;;;;;;;;;;5021460;28;20032;-65
2024/02/13 12:31:09;;;;;;;1.80;1.70;;;;;;;;;;5045216;28;20028;-66
2024/02/13 12:33:36;;;;;;;3.97;2.10;;;;;;;;;;5040614;28;20064;-66
2024/02/13 12:36:07;;;;;;;2.08;1.90;;;;;;;;;;5035337;28;20731;-65
2024/02/13 12:38:36;;;;;;;1.73;1.63;;;;;;;;;;5036096;28;20086;-66
2024/02/13 12:41:07;;;;;;;2.90;2.00;;;;;;;;;;5039808;28;20508;-66
2024/02/13 12:43:34;;;;;;;4.88;1.77;;;;;;;;;;5037718;28;20025;-65
2024/02/13 12:46:03;;;;;;;3.72;1.75;;;;;;;;;;5021728;28;20078;-66
2024/02/13 12:48:36;;;;;;;2.63;2.00;;;;;;;;;;5036598;28;20163;-65
2024/02/13 12:51:04;;;;;;;1.73;1.63;;;;;;;;;;5033192;28;20033;-65
2024/02/13 12:53:34;;;;;;;2.78;1.95;;;;;;;;;;5042667;28;20045;-65
2024/02/13 12:56:00;;;;;;;2.63;1.80;;;;;;;;;;5017574;28;20123;-65
2024/02/13 12:58:26;;;;;;;3.85;2.17;;;;;;;;;;5036843;28;20124;-66
2024/02/13 13:00:54;;;;;;;3.42;2.05;;;;;;;;;;5039151;28;20040;-61
2024/02/13 13:03:20;;;;;;;2.67;1.75;;;;;;;;;;5031423;28;20275;-62
2024/02/13 13:05:49;;;;;;;2.22;2.00;;;;;;;;;;5011071;28;20026;-62
2024/02/13 13:08:17;;;;;;;2.30;1.70;;;;;;;;;;5040076;28;20017;-62
2024/02/13 13:10:44;;;;;;;4.90;2.00;;;;;;;;;;5015467;28;20099;-62
2024/02/13 13:13:13;;;;;;;2.67;1.67;;;;;;;;;;5036122;28;20048;-62
2024/02/13 13:15:41;;;;;;;2.78;1.90;;;;;;;;;;5039390;28;20025;-64
2024/02/13 13:18:11;;;;;;;1.65;1.55;;;;;;;;;;5024294;28;20039;-62
2024/02/13 13:20:38;;;;;;;2.30;2.10;;;;;;;;;;5028983;28;20168;-62
2024/02/13 13:23:05;;;;;;;2.38;1.83;;;;;;;;;;5044674;28;20025;-62
2024/02/13 13:25:31;;;;;;;2.78;1.90;;;;;;;;;;5032334;28;20021;-62
2024/02/13 13:28:05;;;;;;;2.17;1.92;;;;;;;;;;5042113;28;20033;-62
2024/02/13 13:30:32;;;;;;;2.38;2.17;;;;;;;;;;5033743;28;20412;-62
2024/02/13 13:32:58;;;;;;;2.40;2.15;;;;;;;;;;5045398;28;20025;-62
2024/02/13 13:35:26;;;;;;;3.08;1.80;;;;;;;;;;5018734;28;20033;-62
2024/02/13 13:37:52;;;;;;;2.13;1.92;;;;;;;;;;5027702;28;20552;-62
2024/02/13 13:40:21;;;;;;;4.78;2.15;;;;;;;;;;5024849;28;20029;-62
2024/02/13 13:42:48;;;;;;;4.45;2.33;;;;;;;;;;5034329;28;20155;-62
2024/02/13 13:45:14;;;;;;;2.10;1.90;;;;;;;;;;5036423;28;20039;-63
2024/02/13 13:47:43;;;;;;;3.45;2.15;;;;;;;;;;5027303;28;20040;-62
2024/02/13 13:50:10;;;;;;;3.15;2.03;;;;;;;;;;5035131;28;20069;-62
2024/02/13 13:52:37;;;;;;;10.27;7.03;;;;;;;;;;5036237;28;20087;-66
2024/02/13 13:55:03;;;;;;;11.90;7.90;;;;;;;;;;5029666;28;20527;-62
2024/02/13 13:57:30;;;;;;;3.85;2.95;;;;;;;;;;5031697;28;20516;-62
2024/02/13 13:59:56;;;;;;;2.05;1.88;;;;;;;;;;5039078;28;20504;-62
2024/02/13 14:02:22;;;;;;;7.78;5.18;;;;;;;;;;5028720;28;20030;-62
2024/02/13 14:04:52;;;;;;;2.05;1.88;;;;;;;;;;5033578;28;20033;-67
2024/02/13 14:07:19;;;;;;;2.13;1.77;;;;;;;;;;5019058;28;20492;-62
2024/02/13 14:09:46;;;;;;;4.63;2.15;;;;;;;;;;5010618;28;20029;-62
2024/02/13 14:12:13;;;;;;;3.35;1.75;;;;;;;;;;5037433;28;20037;-62
2024/02/13 14:14:39;;;;;;;4.30;2.20;;;;;;;;;;5036932;28;20032;-65
2024/02/13 14:17:06;;;;;;;1.80;1.65;;;;;;;;;;5038449;28;20021;-62
2024/02/13 14:19:32;;;;;;;1.55;1.45;;;;;;;;;;5036834;28;20490;-62
2024/02/13 14:21:59;;;;;;;2.20;1.83;;;;;;;;;;5028262;28;20526;-62
2024/02/13 14:24:25;;;;;;;1.48;1.38;;;;;;;;;;5034495;28;20017;-62
2024/02/13 14:26:51;;;;;;;2.42;1.58;;;;;;;;;;5033149;28;20529;-62
2024/02/13 14:29:18;;;;;;;1.30;1.30;;;;;;;;;;5039507;28;20555;-62
2024/02/13 14:31:47;;;;;;;2.42;1.88;;;;;;;;;;5037118;28;20029;-62
2024/02/13 14:34:13;;;;;;;1.40;1.30;;;;;;;;;;5029298;28;20099;-62
2024/02/13 14:36:40;;;;;;;5.00;2.10;;;;;;;;;;5018754;28;20458;-63
2024/02/13 14:39:06;;;;;;;5.38;2.53;;;;;;;;;;5024017;28;20052;-68
2024/02/13 14:41:33;;;;;;;2.47;1.92;;;;;;;;;;5037185;28;20037;-64
2024/02/13 14:43:59;;;;;;;3.67;1.65;;;;;;;;;;5040569;28;20020;-63
2024/02/13 14:46:28;;;;;;;2.65;2.45;;;;;;;;;;5021824;28;20029;-61